KYKM/YKM METAR and TAF weather

Enter ICAO airport designator
Station Type Date Time Source
KYKM METAR 2021/04/13 07:53 UTC NOAA

KYKM 130753Z AUTO 04009KT 10SM BKN110 09/M08 A3027 RMK AO2 SLP253 T00891078 401561044


Station Type Date Time Source
KYKM Decoded METAR 2021/04/13 07:53 UTC NOAA

YAKIMA AIR TERMINAL, WA, United States (KYKM) 46-34N 120-32W 324M
Apr 13, 2021 - 03:53 AM EDT / 2021.04.13 0753 UTC
Wind: from the NE (040 degrees) at 10 MPH (9 KT):0
Visibility: 10 mile(s):0
Sky conditions: mostly cloudy
Temperature: 48.0 F (8.9 C)
Dew Point: 18.0 F (-7.8 C)
Relative Humidity: 29%
Pressure (altimeter): 30.27 in. Hg (1025 hPa)
ob: KYKM 130753Z AUTO 04009KT 10SM BKN110 09/M08 A3027 RMK AO2 SLP253 T00891078 401561044
cycle: 8

Station Type Date Time Source
KYKM TAF 2021/04/13 08:06 UTC NOAA

TAF
AMD KYKM 130805Z 1308/1406 04010KT P6SM SKC
FM131200 04015G25KT P6SM SKC
FM131900 05025G35KT P6SM SKC
FM132300 32024G31KT P6SM SKC
FM140100 33021G27KT P6SM FEW250
FM140200 35012G18KT P6SM FEW250

Example: see airport list